sensor_id;sensor_type;location;lat;lon;timestamp;P1;durP1;ratioP1;P2;durP2;ratioP2
14526;SDS011;7350;51.208;4.238;2023-04-28T00:02:01;3.47;;;2.95;;
14526;SDS011;7350;51.208;4.238;2023-04-28T00:04:28;3.35;;;2.97;;
14526;SDS011;7350;51.208;4.238;2023-04-28T00:06:55;5.03;;;3.20;;
14526;SDS011;7350;51.208;4.238;2023-04-28T00:09:22;4.78;;;3.08;;
14526;SDS011;7350;51.208;4.238;2023-04-28T00:11:49;3.80;;;3.40;;
14526;SDS011;7350;51.208;4.238;2023-04-28T00:14:16;5.10;;;3.33;;
14526;SDS011;7350;51.208;4.238;2023-04-28T00:16:44;3.50;;;2.92;;
14526;SDS011;7350;51.208;4.238;2023-04-28T00:19:11;4.18;;;2.97;;
14526;SDS011;7350;51.208;4.238;2023-04-28T00:21:38;3.45;;;3.03;;
14526;SDS011;7350;51.208;4.238;2023-04-28T00:24:05;3.03;;;2.72;;
14526;SDS011;7350;51.208;4.238;2023-04-28T00:26:32;3.20;;;2.90;;
14526;SDS011;7350;51.208;4.238;2023-04-28T00:29:00;3.72;;;3.10;;
14526;SDS011;7350;51.208;4.238;2023-04-28T00:31:27;3.35;;;2.90;;
14526;SDS011;7350;51.208;4.238;2023-04-28T00:33:55;3.88;;;3.40;;
14526;SDS011;7350;51.208;4.238;2023-04-28T00:36:22;3.53;;;3.10;;
14526;SDS011;7350;51.208;4.238;2023-04-28T00:38:49;4.70;;;3.20;;
14526;SDS011;7350;51.208;4.238;2023-04-28T00:41:16;3.97;;;3.13;;
14526;SDS011;7350;51.208;4.238;2023-04-28T00:43:43;4.82;;;3.25;;
14526;SDS011;7350;51.208;4.238;2023-04-28T00:46:12;3.17;;;2.80;;
14526;SDS011;7350;51.208;4.238;2023-04-28T00:48:46;3.80;;;3.00;;
14526;SDS011;7350;51.208;4.238;2023-04-28T00:51:15;3.85;;;2.95;;
14526;SDS011;7350;51.208;4.238;2023-04-28T00:53:42;3.92;;;3.30;;
14526;SDS011;7350;51.208;4.238;2023-04-28T00:56:10;3.58;;;3.08;;
14526;SDS011;7350;51.208;4.238;2023-04-28T00:58:37;3.08;;;2.83;;
14526;SDS011;7350;51.208;4.238;2023-04-28T01:01:05;3.10;;;2.80;;
14526;SDS011;7350;51.208;4.238;2023-04-28T01:03:33;3.75;;;3.13;;
14526;SDS011;7350;51.208;4.238;2023-04-28T01:06:01;3.30;;;2.78;;
14526;SDS011;7350;51.208;4.238;2023-04-28T01:08:31;4.05;;;3.30;;
14526;SDS011;7350;51.208;4.238;2023-04-28T01:10:59;3.10;;;2.80;;
14526;SDS011;7350;51.208;4.238;2023-04-28T01:13:27;3.53;;;3.10;;
14526;SDS011;7350;51.208;4.238;2023-04-28T01:15:54;4.90;;;3.35;;
14526;SDS011;7350;51.208;4.238;2023-04-28T01:18:21;4.30;;;2.78;;
14526;SDS011;7350;51.208;4.238;2023-04-28T01:20:48;4.20;;;3.20;;
14526;SDS011;7350;51.208;4.238;2023-04-28T01:23:16;3.75;;;3.17;;
14526;SDS011;7350;51.208;4.238;2023-04-28T01:25:44;4.13;;;3.08;;
14526;SDS011;7350;51.208;4.238;2023-04-28T01:28:11;4.93;;;3.33;;
14526;SDS011;7350;51.208;4.238;2023-04-28T01:30:38;3.67;;;3.28;;
14526;SDS011;7350;51.208;4.238;2023-04-28T01:33:05;4.15;;;3.30;;
14526;SDS011;7350;51.208;4.238;2023-04-28T01:35:32;3.28;;;2.97;;
14526;SDS011;7350;51.208;4.238;2023-04-28T01:37:59;4.18;;;3.10;;
14526;SDS011;7350;51.208;4.238;2023-04-28T01:40:26;3.50;;;3.20;;
14526;SDS011;7350;51.208;4.238;2023-04-28T01:42:54;3.70;;;2.97;;
14526;SDS011;7350;51.208;4.238;2023-04-28T01:45:21;4.03;;;3.00;;
14526;SDS011;7350;51.208;4.238;2023-04-28T01:47:48;3.92;;;3.45;;
14526;SDS011;7350;51.208;4.238;2023-04-28T01:50:15;3.30;;;3.00;;
14526;SDS011;7350;51.208;4.238;2023-04-28T01:52:42;3.60;;;3.30;;
14526;SDS011;7350;51.208;4.238;2023-04-28T01:55:09;3.33;;;3.03;;
14526;SDS011;7350;51.208;4.238;2023-04-28T01:57:36;3.08;;;2.78;;
14526;SDS011;7350;51.208;4.238;2023-04-28T02:00:05;3.50;;;3.20;;
14526;SDS011;7350;51.208;4.238;2023-04-28T02:02:33;4.78;;;3.28;;
14526;SDS011;7350;51.208;4.238;2023-04-28T02:05:00;3.75;;;3.35;;
14526;SDS011;7350;51.208;4.238;2023-04-28T02:07:27;3.75;;;3.40;;
14526;SDS011;7350;51.208;4.238;2023-04-28T02:09:54;3.63;;;3.08;;
14526;SDS011;7350;51.208;4.238;2023-04-28T02:12:21;3.95;;;3.50;;
14526;SDS011;7350;51.208;4.238;2023-04-28T02:14:48;3.67;;;3.38;;
14526;SDS011;7350;51.208;4.238;2023-04-28T02:17:17;4.07;;;3.60;;
14526;SDS011;7350;51.208;4.238;2023-04-28T02:19:44;4.00;;;3.50;;
14526;SDS011;7350;51.208;4.238;2023-04-28T02:22:11;3.90;;;3.50;;
14526;SDS011;7350;51.208;4.238;2023-04-28T02:24:38;4.68;;;3.33;;
14526;SDS011;7350;51.208;4.238;2023-04-28T02:27:05;3.33;;;3.00;;
14526;SDS011;7350;51.208;4.238;2023-04-28T02:29:32;3.72;;;3.30;;
14526;SDS011;7350;51.208;4.238;2023-04-28T02:31:59;3.78;;;3.47;;
14526;SDS011;7350;51.208;4.238;2023-04-28T02:34:27;3.78;;;3.35;;
14526;SDS011;7350;51.208;4.238;2023-04-28T02:36:54;3.63;;;3.30;;
14526;SDS011;7350;51.208;4.238;2023-04-28T02:39:21;3.50;;;3.20;;
14526;SDS011;7350;51.208;4.238;2023-04-28T02:41:50;3.95;;;3.15;;
14526;SDS011;7350;51.208;4.238;2023-04-28T02:44:18;3.65;;;3.35;;
14526;SDS011;7350;51.208;4.238;2023-04-28T02:46:45;3.95;;;3.40;;
14526;SDS011;7350;51.208;4.238;2023-04-28T02:49:12;4.00;;;3.60;;
14526;SDS011;7350;51.208;4.238;2023-04-28T02:51:41;4.30;;;3.90;;
14526;SDS011;7350;51.208;4.238;2023-04-28T02:54:08;3.90;;;3.30;;
14526;SDS011;7350;51.208;4.238;2023-04-28T02:56:35;3.88;;;3.53;;
14526;SDS011;7350;51.208;4.238;2023-04-28T02:59:04;4.45;;;3.33;;
14526;SDS011;7350;51.208;4.238;2023-04-28T03:01:31;3.50;;;3.20;;
14526;SDS011;7350;51.208;4.238;2023-04-28T03:03:58;3.45;;;3.15;;
14526;SDS011;7350;51.208;4.238;2023-04-28T03:06:25;3.83;;;3.22;;
14526;SDS011;7350;51.208;4.238;2023-04-28T03:08:54;3.50;;;3.20;;
14526;SDS011;7350;51.208;4.238;2023-04-28T03:11:21;4.07;;;3.63;;
14526;SDS011;7350;51.208;4.238;2023-04-28T03:13:48;4.53;;;3.25;;
14526;SDS011;7350;51.208;4.238;2023-04-28T03:16:15;3.47;;;2.92;;
14526;SDS011;7350;51.208;4.238;2023-04-28T03:18:42;3.75;;;3.40;;
14526;SDS011;7350;51.208;4.238;2023-04-28T03:21:08;4.47;;;3.40;;
14526;SDS011;7350;51.208;4.238;2023-04-28T03:23:35;3.60;;;3.28;;
14526;SDS011;7350;51.208;4.238;2023-04-28T03:26:04;4.38;;;3.30;;
14526;SDS011;7350;51.208;4.238;2023-04-28T03:28:31;4.60;;;4.20;;
14526;SDS011;7350;51.208;4.238;2023-04-28T03:30:58;4.00;;;3.42;;
14526;SDS011;7350;51.208;4.238;2023-04-28T03:33:25;3.85;;;3.45;;
14526;SDS011;7350;51.208;4.238;2023-04-28T03:35:52;3.83;;;3.53;;
14526;SDS011;7350;51.208;4.238;2023-04-28T03:38:19;4.57;;;3.65;;
14526;SDS011;7350;51.208;4.238;2023-04-28T03:40:46;3.97;;;3.63;;
14526;SDS011;7350;51.208;4.238;2023-04-28T03:43:14;5.22;;;3.35;;
14526;SDS011;7350;51.208;4.238;2023-04-28T03:45:41;4.50;;;4.10;;
14526;SDS011;7350;51.208;4.238;2023-04-28T03:48:08;4.45;;;4.03;;
14526;SDS011;7350;51.208;4.238;2023-04-28T03:50:35;4.22;;;3.83;;
14526;SDS011;7350;51.208;4.238;2023-04-28T03:53:05;4.07;;;3.67;;
14526;SDS011;7350;51.208;4.238;2023-04-28T03:55:31;3.78;;;3.40;;
14526;SDS011;7350;51.208;4.238;2023-04-28T03:57:58;4.28;;;3.88;;
14526;SDS011;7350;51.208;4.238;2023-04-28T04:00:27;3.80;;;3.50;;
14526;SDS011;7350;51.208;4.238;2023-04-28T04:02:54;4.43;;;3.80;;
14526;SDS011;7350;51.208;4.238;2023-04-28T04:05:21;4.15;;;3.75;;
14526;SDS011;7350;51.208;4.238;2023-04-28T04:07:48;4.13;;;3.72;;
14526;SDS011;7350;51.208;4.238;2023-04-28T04:10:15;3.70;;;3.35;;
14526;SDS011;7350;51.208;4.238;2023-04-28T04:12:42;3.95;;;3.38;;
14526;SDS011;7350;51.208;4.238;2023-04-28T04:15:09;4.45;;;4.05;;
14526;SDS011;7350;51.208;4.238;2023-04-28T04:17:37;5.32;;;3.40;;
14526;SDS011;7350;51.208;4.238;2023-04-28T04:20:05;4.80;;;3.60;;
14526;SDS011;7350;51.208;4.238;2023-04-28T04:22:34;6.28;;;3.95;;
14526;SDS011;7350;51.208;4.238;2023-04-28T04:25:01;3.72;;;3.42;;
14526;SDS011;7350;51.208;4.238;2023-04-28T04:27:28;4.38;;;3.85;;
14526;SDS011;7350;51.208;4.238;2023-04-28T04:29:55;5.78;;;4.05;;
14526;SDS011;7350;51.208;4.238;2023-04-28T04:32:22;4.90;;;3.90;;
14526;SDS011;7350;51.208;4.238;2023-04-28T04:34:50;6.85;;;3.90;;
14526;SDS011;7350;51.208;4.238;2023-04-28T04:37:17;8.38;;;4.18;;
14526;SDS011;7350;51.208;4.238;2023-04-28T04:39:44;5.93;;;3.92;;
14526;SDS011;7350;51.208;4.238;2023-04-28T04:42:11;6.05;;;3.60;;
14526;SDS011;7350;51.208;4.238;2023-04-28T04:44:38;8.52;;;3.60;;
14526;SDS011;7350;51.208;4.238;2023-04-28T04:47:06;7.18;;;3.03;;
14526;SDS011;7350;51.208;4.238;2023-04-28T04:49:33;8.65;;;3.40;;
14526;SDS011;7350;51.208;4.238;2023-04-28T04:52:01;3.25;;;2.95;;
14526;SDS011;7350;51.208;4.238;2023-04-28T04:54:30;4.15;;;3.33;;
14526;SDS011;7350;51.208;4.238;2023-04-28T04:56:57;5.45;;;3.40;;
14526;SDS011;7350;51.208;4.238;2023-04-28T04:59:24;3.88;;;3.10;;
14526;SDS011;7350;51.208;4.238;2023-04-28T05:01:52;7.13;;;3.13;;
14526;SDS011;7350;51.208;4.238;2023-04-28T05:04:19;3.83;;;2.88;;
14526;SDS011;7350;51.208;4.238;2023-04-28T05:06:46;5.10;;;3.03;;
14526;SDS011;7350;51.208;4.238;2023-04-28T05:09:14;3.50;;;3.08;;
14526;SDS011;7350;51.208;4.238;2023-04-28T05:11:41;5.93;;;3.17;;
14526;SDS011;7350;51.208;4.238;2023-04-28T05:14:08;5.07;;;3.50;;
14526;SDS011;7350;51.208;4.238;2023-04-28T05:16:36;4.78;;;3.63;;
14526;SDS011;7350;51.208;4.238;2023-04-28T05:19:03;4.15;;;3.75;;
14526;SDS011;7350;51.208;4.238;2023-04-28T05:21:30;3.65;;;3.25;;
14526;SDS011;7350;51.208;4.238;2023-04-28T05:23:57;7.25;;;3.25;;
14526;SDS011;7350;51.208;4.238;2023-04-28T05:26:25;6.40;;;3.25;;
14526;SDS011;7350;51.208;4.238;2023-04-28T05:28:52;5.97;;;3.60;;
14526;SDS011;7350;51.208;4.238;2023-04-28T05:31:19;4.28;;;3.40;;
14526;SDS011;7350;51.208;4.238;2023-04-28T05:33:46;6.53;;;3.58;;
14526;SDS011;7350;51.208;4.238;2023-04-28T05:36:13;4.25;;;3.63;;
14526;SDS011;7350;51.208;4.238;2023-04-28T05:38:41;5.10;;;3.15;;
14526;SDS011;7350;51.208;4.238;2023-04-28T05:41:08;5.20;;;3.60;;
14526;SDS011;7350;51.208;4.238;2023-04-28T05:43:36;4.50;;;3.35;;
14526;SDS011;7350;51.208;4.238;2023-04-28T05:46:03;5.15;;;3.13;;
14526;SDS011;7350;51.208;4.238;2023-04-28T05:48:30;3.95;;;3.65;;
14526;SDS011;7350;51.208;4.238;2023-04-28T05:50:57;4.50;;;3.80;;
14526;SDS011;7350;51.208;4.238;2023-04-28T05:53:24;4.65;;;3.72;;
14526;SDS011;7350;51.208;4.238;2023-04-28T05:55:51;4.78;;;3.72;;
14526;SDS011;7350;51.208;4.238;2023-04-28T05:58:18;3.90;;;3.40;;
14526;SDS011;7350;51.208;4.238;2023-04-28T06:00:47;5.00;;;3.72;;
14526;SDS011;7350;51.208;4.238;2023-04-28T06:03:14;3.58;;;3.28;;
14526;SDS011;7350;51.208;4.238;2023-04-28T06:05:43;4.25;;;3.85;;
14526;SDS011;7350;51.208;4.238;2023-04-28T06:08:10;4.07;;;3.67;;
14526;SDS011;7350;51.208;4.238;2023-04-28T06:10:37;4.13;;;3.40;;
14526;SDS011;7350;51.208;4.238;2023-04-28T06:13:04;5.63;;;3.97;;
14526;SDS011;7350;51.208;4.238;2023-04-28T06:15:30;4.95;;;4.18;;
14526;SDS011;7350;51.208;4.238;2023-04-28T06:17:59;4.00;;;3.63;;
14526;SDS011;7350;51.208;4.238;2023-04-28T06:20:26;4.75;;;3.65;;
14526;SDS011;7350;51.208;4.238;2023-04-28T06:22:53;5.68;;;4.00;;
14526;SDS011;7350;51.208;4.238;2023-04-28T06:25:20;5.25;;;4.10;;
14526;SDS011;7350;51.208;4.238;2023-04-28T06:27:47;5.70;;;4.22;;
14526;SDS011;7350;51.208;4.238;2023-04-28T06:30:16;4.85;;;4.28;;
14526;SDS011;7350;51.208;4.238;2023-04-28T06:32:44;4.35;;;3.90;;
14526;SDS011;7350;51.208;4.238;2023-04-28T06:35:13;6.22;;;4.50;;
14526;SDS011;7350;51.208;4.238;2023-04-28T06:37:41;5.15;;;4.43;;
14526;SDS011;7350;51.208;4.238;2023-04-28T06:40:08;5.07;;;4.00;;
14526;SDS011;7350;51.208;4.238;2023-04-28T06:42:36;4.53;;;3.70;;
14526;SDS011;7350;51.208;4.238;2023-04-28T06:45:03;4.38;;;3.97;;
14526;SDS011;7350;51.208;4.238;2023-04-28T06:47:31;4.63;;;4.10;;
14526;SDS011;7350;51.208;4.238;2023-04-28T06:49:58;5.57;;;4.43;;
14526;SDS011;7350;51.208;4.238;2023-04-28T06:52:27;4.25;;;3.63;;
14526;SDS011;7350;51.208;4.238;2023-04-28T06:54:54;5.97;;;4.60;;
14526;SDS011;7350;51.208;4.238;2023-04-28T06:57:21;5.35;;;4.82;;
14526;SDS011;7350;51.208;4.238;2023-04-28T06:59:48;5.72;;;4.50;;
14526;SDS011;7350;51.208;4.238;2023-04-28T07:02:15;6.47;;;5.05;;
14526;SDS011;7350;51.208;4.238;2023-04-28T07:04:42;5.95;;;4.97;;
14526;SDS011;7350;51.208;4.238;2023-04-28T07:07:09;6.28;;;5.47;;
14526;SDS011;7350;51.208;4.238;2023-04-28T07:09:38;5.65;;;5.15;;
14526;SDS011;7350;51.208;4.238;2023-04-28T07:12:05;8.05;;;4.93;;
14526;SDS011;7350;51.208;4.238;2023-04-28T07:14:32;6.18;;;4.80;;
14526;SDS011;7350;51.208;4.238;2023-04-28T07:16:59;7.03;;;5.18;;
14526;SDS011;7350;51.208;4.238;2023-04-28T07:19:26;5.72;;;4.88;;
14526;SDS011;7350;51.208;4.238;2023-04-28T07:21:53;5.00;;;4.50;;
14526;SDS011;7350;51.208;4.238;2023-04-28T07:24:20;6.85;;;5.22;;
14526;SDS011;7350;51.208;4.238;2023-04-28T07:26:49;5.55;;;4.60;;
14526;SDS011;7350;51.208;4.238;2023-04-28T07:29:16;4.57;;;4.15;;
14526;SDS011;7350;51.208;4.238;2023-04-28T07:31:44;8.13;;;4.80;;
14526;SDS011;7350;51.208;4.238;2023-04-28T07:34:11;4.97;;;4.40;;
14526;SDS011;7350;51.208;4.238;2023-04-28T07:36:38;4.72;;;4.28;;
14526;SDS011;7350;51.208;4.238;2023-04-28T07:39:05;4.75;;;4.25;;
14526;SDS011;7350;51.208;4.238;2023-04-28T07:41:34;4.88;;;4.10;;
14526;SDS011;7350;51.208;4.238;2023-04-28T07:44:04;4.65;;;3.90;;
14526;SDS011;7350;51.208;4.238;2023-04-28T07:46:32;5.43;;;4.53;;
14526;SDS011;7350;51.208;4.238;2023-04-28T07:48:59;5.30;;;4.10;;
14526;SDS011;7350;51.208;4.238;2023-04-28T07:51:27;4.88;;;4.07;;
14526;SDS011;7350;51.208;4.238;2023-04-28T07:53:55;5.57;;;4.72;;
14526;SDS011;7350;51.208;4.238;2023-04-28T07:56:22;5.50;;;4.22;;
14526;SDS011;7350;51.208;4.238;2023-04-28T07:58:50;5.18;;;4.32;;
14526;SDS011;7350;51.208;4.238;2023-04-28T08:01:18;6.05;;;4.40;;
14526;SDS011;7350;51.208;4.238;2023-04-28T08:03:45;5.50;;;4.15;;
14526;SDS011;7350;51.208;4.238;2023-04-28T08:06:12;6.35;;;4.45;;
14526;SDS011;7350;51.208;4.238;2023-04-28T08:08:39;5.57;;;4.45;;
14526;SDS011;7350;51.208;4.238;2023-04-28T08:11:06;6.85;;;4.95;;
14526;SDS011;7350;51.208;4.238;2023-04-28T08:13:33;6.35;;;4.75;;
14526;SDS011;7350;51.208;4.238;2023-04-28T08:16:00;6.20;;;4.90;;
14526;SDS011;7350;51.208;4.238;2023-04-28T08:18:29;6.07;;;4.40;;
14526;SDS011;7350;51.208;4.238;2023-04-28T08:20:56;5.32;;;4.65;;
14526;SDS011;7350;51.208;4.238;2023-04-28T08:23:23;6.20;;;4.10;;
14526;SDS011;7350;51.208;4.238;2023-04-28T08:25:52;6.45;;;4.25;;
14526;SDS011;7350;51.208;4.238;2023-04-28T08:28:19;5.50;;;4.15;;
14526;SDS011;7350;51.208;4.238;2023-04-28T08:30:46;7.00;;;4.18;;
14526;SDS011;7350;51.208;4.238;2023-04-28T08:33:13;5.20;;;4.10;;
14526;SDS011;7350;51.208;4.238;2023-04-28T08:35:42;5.07;;;4.10;;
14526;SDS011;7350;51.208;4.238;2023-04-28T08:38:09;5.38;;;3.88;;
14526;SDS011;7350;51.208;4.238;2023-04-28T08:40:38;5.03;;;3.75;;
14526;SDS011;7350;51.208;4.238;2023-04-28T08:43:06;5.53;;;4.10;;
14526;SDS011;7350;51.208;4.238;2023-04-28T08:45:36;4.30;;;3.38;;
14526;SDS011;7350;51.208;4.238;2023-04-28T08:48:08;6.28;;;3.60;;
14526;SDS011;7350;51.208;4.238;2023-04-28T08:50:45;5.03;;;3.75;;
14526;SDS011;7350;51.208;4.238;2023-04-28T08:53:15;4.90;;;3.67;;
14526;SDS011;7350;51.208;4.238;2023-04-28T08:55:49;6.70;;;3.60;;
14526;SDS011;7350;51.208;4.238;2023-04-28T08:58:21;5.47;;;3.67;;
14526;SDS011;7350;51.208;4.238;2023-04-28T09:00:49;6.07;;;3.58;;
14526;SDS011;7350;51.208;4.238;2023-04-28T09:03:16;4.07;;;3.17;;
14526;SDS011;7350;51.208;4.238;2023-04-28T09:05:45;4.32;;;3.25;;
14526;SDS011;7350;51.208;4.238;2023-04-28T09:08:13;4.70;;;3.20;;
14526;SDS011;7350;51.208;4.238;2023-04-28T09:10:40;4.85;;;3.10;;
14526;SDS011;7350;51.208;4.238;2023-04-28T09:13:07;3.58;;;3.10;;
14526;SDS011;7350;51.208;4.238;2023-04-28T09:15:34;5.32;;;3.03;;
14526;SDS011;7350;51.208;4.238;2023-04-28T09:18:05;3.42;;;2.70;;
14526;SDS011;7350;51.208;4.238;2023-04-28T09:20:33;4.47;;;2.63;;
14526;SDS011;7350;51.208;4.238;2023-04-28T09:23:13;3.85;;;3.03;;
14526;SDS011;7350;51.208;4.238;2023-04-28T09:25:55;3.42;;;2.58;;
14526;SDS011;7350;51.208;4.238;2023-04-28T09:28:23;4.90;;;2.63;;
14526;SDS011;7350;51.208;4.238;2023-04-28T09:30:50;4.97;;;2.83;;
14526;SDS011;7350;51.208;4.238;2023-04-28T09:33:18;5.18;;;2.97;;
14526;SDS011;7350;51.208;4.238;2023-04-28T09:35:45;2.88;;;2.28;;
14526;SDS011;7350;51.208;4.238;2023-04-28T09:38:14;5.03;;;3.05;;
14526;SDS011;7350;51.208;4.238;2023-04-28T09:40:56;3.30;;;2.15;;
14526;SDS011;7350;51.208;4.238;2023-04-28T09:43:25;6.05;;;2.40;;
14526;SDS011;7350;51.208;4.238;2023-04-28T09:45:53;2.78;;;2.42;;
14526;SDS011;7350;51.208;4.238;2023-04-28T09:48:27;3.55;;;2.70;;
14526;SDS011;7350;51.208;4.238;2023-04-28T09:50:56;4.40;;;2.55;;
14526;SDS011;7350;51.208;4.238;2023-04-28T09:53:25;5.90;;;2.72;;
14526;SDS011;7350;51.208;4.238;2023-04-28T09:55:52;3.40;;;2.30;;
14526;SDS011;7350;51.208;4.238;2023-04-28T09:58:21;4.18;;;2.47;;
14526;SDS011;7350;51.208;4.238;2023-04-28T10:00:51;3.78;;;2.42;;
14526;SDS011;7350;51.208;4.238;2023-04-28T10:03:22;2.58;;;2.20;;
14526;SDS011;7350;51.208;4.238;2023-04-28T10:05:50;3.10;;;2.13;;
14526;SDS011;7350;51.208;4.238;2023-04-28T10:08:18;2.75;;;2.08;;
14526;SDS011;7350;51.208;4.238;2023-04-28T10:10:48;3.33;;;2.25;;
14526;SDS011;7350;51.208;4.238;2023-04-28T10:13:17;2.50;;;2.00;;
14526;SDS011;7350;51.208;4.238;2023-04-28T10:15:45;2.95;;;2.15;;
14526;SDS011;7350;51.208;4.238;2023-04-28T10:18:12;2.45;;;2.03;;
14526;SDS011;7350;51.208;4.238;2023-04-28T10:20:40;3.05;;;2.25;;
14526;SDS011;7350;51.208;4.238;2023-04-28T10:25:59;2.45;;;2.00;;
14526;SDS011;7350;51.208;4.238;2023-04-28T10:28:29;2.22;;;1.70;;
14526;SDS011;7350;51.208;4.238;2023-04-28T10:31:08;2.15;;;1.73;;
14526;SDS011;7350;51.208;4.238;2023-04-28T10:33:36;3.47;;;1.90;;
14526;SDS011;7350;51.208;4.238;2023-04-28T10:36:03;3.53;;;1.80;;
14526;SDS011;7350;51.208;4.238;2023-04-28T10:38:31;2.03;;;1.83;;
14526;SDS011;7350;51.208;4.238;2023-04-28T10:41:00;2.63;;;1.80;;
14526;SDS011;7350;51.208;4.238;2023-04-28T10:43:36;1.83;;;1.50;;
14526;SDS011;7350;51.208;4.238;2023-04-28T10:46:05;1.80;;;1.67;;
14526;SDS011;7350;51.208;4.238;2023-04-28T10:54:13;2.67;;;1.35;;
14526;SDS011;7350;51.208;4.238;2023-04-28T10:59:47;1.50;;;1.40;;
14526;SDS011;7350;51.208;4.238;2023-04-28T11:05:18;2.20;;;1.50;;
14526;SDS011;7350;51.208;4.238;2023-04-28T11:11:10;1.90;;;1.27;;
14526;SDS011;7350;51.208;4.238;2023-04-28T11:13:45;1.50;;;1.27;;
14526;SDS011;7350;51.208;4.238;2023-04-28T11:16:18;1.80;;;1.48;;
14526;SDS011;7350;51.208;4.238;2023-04-28T11:18:50;1.70;;;1.60;;
14526;SDS011;7350;51.208;4.238;2023-04-28T11:21:23;1.40;;;1.30;;
14526;SDS011;7350;51.208;4.238;2023-04-28T11:23:52;1.10;;;1.00;;
14526;SDS011;7350;51.208;4.238;2023-04-28T11:26:19;1.60;;;1.13;;
14526;SDS011;7350;51.208;4.238;2023-04-28T11:28:51;1.70;;;1.40;;
14526;SDS011;7350;51.208;4.238;2023-04-28T11:31:20;1.45;;;1.33;;
14526;SDS011;7350;51.208;4.238;2023-04-28T11:33:50;1.75;;;1.35;;
14526;SDS011;7350;51.208;4.238;2023-04-28T11:36:24;1.42;;;1.23;;
14526;SDS011;7350;51.208;4.238;2023-04-28T11:38:52;1.70;;;1.20;;
14526;SDS011;7350;51.208;4.238;2023-04-28T11:41:20;1.60;;;1.20;;
14526;SDS011;7350;51.208;4.238;2023-04-28T11:43:47;1.27;;;1.17;;
14526;SDS011;7350;51.208;4.238;2023-04-28T11:46:15;1.60;;;1.10;;
14526;SDS011;7350;51.208;4.238;2023-04-28T11:48:44;1.15;;;1.15;;
14526;SDS011;7350;51.208;4.238;2023-04-28T11:51:30;1.63;;;1.50;;
14526;SDS011;7350;51.208;4.238;2023-04-28T11:53:59;1.20;;;1.10;;
14526;SDS011;7350;51.208;4.238;2023-04-28T11:56:26;1.20;;;1.10;;
14526;SDS011;7350;51.208;4.238;2023-04-28T11:59:00;1.40;;;1.10;;
14526;SDS011;7350;51.208;4.238;2023-04-28T12:01:29;1.77;;;1.10;;
14526;SDS011;7350;51.208;4.238;2023-04-28T12:03:58;1.30;;;1.20;;
14526;SDS011;7350;51.208;4.238;2023-04-28T12:06:25;1.45;;;1.20;;
14526;SDS011;7350;51.208;4.238;2023-04-28T12:08:54;1.02;;;1.00;;
14526;SDS011;7350;51.208;4.238;2023-04-28T12:11:21;1.45;;;1.23;;
14526;SDS011;7350;51.208;4.238;2023-04-28T12:14:04;1.10;;;1.10;;
14526;SDS011;7350;51.208;4.238;2023-04-28T12:16:39;1.30;;;1.20;;
14526;SDS011;7350;51.208;4.238;2023-04-28T12:19:13;1.33;;;1.23;;
14526;SDS011;7350;51.208;4.238;2023-04-28T12:21:40;2.17;;;1.50;;
14526;SDS011;7350;51.208;4.238;2023-04-28T12:24:17;1.30;;;1.20;;
14526;SDS011;7350;51.208;4.238;2023-04-28T12:26:47;1.10;;;1.00;;
14526;SDS011;7350;51.208;4.238;2023-04-28T12:32:04;1.40;;;1.30;;
14526;SDS011;7350;51.208;4.238;2023-04-28T12:34:34;1.70;;;1.20;;
14526;SDS011;7350;51.208;4.238;2023-04-28T12:37:01;1.30;;;1.20;;
14526;SDS011;7350;51.208;4.238;2023-04-28T12:39:29;1.38;;;1.27;;
14526;SDS011;7350;51.208;4.238;2023-04-28T12:41:57;1.38;;;1.27;;
14526;SDS011;7350;51.208;4.238;2023-04-28T12:44:27;1.15;;;1.05;;
14526;SDS011;7350;51.208;4.238;2023-04-28T12:46:59;1.35;;;1.25;;
14526;SDS011;7350;51.208;4.238;2023-04-28T12:49:27;0.95;;;0.95;;
14526;SDS011;7350;51.208;4.238;2023-04-28T12:51:55;1.30;;;1.20;;
14526;SDS011;7350;51.208;4.238;2023-04-28T12:54:22;1.30;;;1.20;;
14526;SDS011;7350;51.208;4.238;2023-04-28T12:56:50;2.33;;;1.15;;
14526;SDS011;7350;51.208;4.238;2023-04-28T12:59:18;1.23;;;1.13;;
14526;SDS011;7350;51.208;4.238;2023-04-28T13:01:45;1.10;;;1.00;;
14526;SDS011;7350;51.208;4.238;2023-04-28T13:04:12;1.35;;;1.20;;
14526;SDS011;7350;51.208;4.238;2023-04-28T13:06:39;1.25;;;1.15;;
14526;SDS011;7350;51.208;4.238;2023-04-28T13:09:09;1.20;;;1.00;;
14526;SDS011;7350;51.208;4.238;2023-04-28T13:11:36;1.40;;;1.30;;
14526;SDS011;7350;51.208;4.238;2023-04-28T13:14:03;1.10;;;1.10;;
14526;SDS011;7350;51.208;4.238;2023-04-28T13:16:30;1.30;;;1.20;;
14526;SDS011;7350;51.208;4.238;2023-04-28T13:18:58;1.48;;;1.20;;
14526;SDS011;7350;51.208;4.238;2023-04-28T13:21:26;1.48;;;1.38;;
14526;SDS011;7350;51.208;4.238;2023-04-28T13:23:53;2.05;;;1.17;;
14526;SDS011;7350;51.208;4.238;2023-04-28T13:26:22;0.90;;;0.90;;
14526;SDS011;7350;51.208;4.238;2023-04-28T13:28:49;1.20;;;1.10;;
14526;SDS011;7350;51.208;4.238;2023-04-28T13:31:17;1.23;;;0.90;;
14526;SDS011;7350;51.208;4.238;2023-04-28T13:33:44;1.30;;;1.20;;
14526;SDS011;7350;51.208;4.238;2023-04-28T13:36:11;1.38;;;1.27;;
14526;SDS011;7350;51.208;4.238;2023-04-28T13:38:38;1.25;;;1.13;;
14526;SDS011;7350;51.208;4.238;2023-04-28T13:41:05;1.73;;;0.98;;
14526;SDS011;7350;51.208;4.238;2023-04-28T13:43:33;1.02;;;1.02;;
14526;SDS011;7350;51.208;4.238;2023-04-28T13:46:01;1.20;;;1.10;;
14526;SDS011;7350;51.208;4.238;2023-04-28T13:48:32;1.00;;;0.90;;
14526;SDS011;7350;51.208;4.238;2023-04-28T13:51:00;1.00;;;1.00;;
14526;SDS011;7350;51.208;4.238;2023-04-28T13:53:28;1.02;;;0.93;;
14526;SDS011;7350;51.208;4.238;2023-04-28T13:55:55;1.33;;;1.00;;
14526;SDS011;7350;51.208;4.238;2023-04-28T13:58:22;0.88;;;0.82;;
14526;SDS011;7350;51.208;4.238;2023-04-28T14:00:51;1.20;;;1.10;;
14526;SDS011;7350;51.208;4.238;2023-04-28T14:03:18;1.00;;;1.00;;
14526;SDS011;7350;51.208;4.238;2023-04-28T14:05:46;1.60;;;0.95;;
14526;SDS011;7350;51.208;4.238;2023-04-28T14:08:13;1.33;;;1.10;;
14526;SDS011;7350;51.208;4.238;2023-04-28T14:10:41;1.10;;;1.00;;
14526;SDS011;7350;51.208;4.238;2023-04-28T14:13:07;1.15;;;1.15;;
14526;SDS011;7350;51.208;4.238;2023-04-28T14:15:34;0.90;;;0.90;;
14526;SDS011;7350;51.208;4.238;2023-04-28T14:18:03;1.10;;;1.00;;
14526;SDS011;7350;51.208;4.238;2023-04-28T14:20:30;1.27;;;1.17;;
14526;SDS011;7350;51.208;4.238;2023-04-28T14:22:57;1.02;;;0.90;;
14526;SDS011;7350;51.208;4.238;2023-04-28T14:25:24;0.98;;;0.93;;
14526;SDS011;7350;51.208;4.238;2023-04-28T14:27:51;1.35;;;1.00;;
14526;SDS011;7350;51.208;4.238;2023-04-28T14:30:18;1.00;;;0.90;;
14526;SDS011;7350;51.208;4.238;2023-04-28T14:32:47;1.00;;;0.90;;
14526;SDS011;7350;51.208;4.238;2023-04-28T14:35:15;1.17;;;1.08;;
14526;SDS011;7350;51.208;4.238;2023-04-28T14:37:44;1.15;;;1.08;;
14526;SDS011;7350;51.208;4.238;2023-04-28T14:40:12;1.30;;;0.90;;
14526;SDS011;7350;51.208;4.238;2023-04-28T14:42:40;1.05;;;0.90;;
14526;SDS011;7350;51.208;4.238;2023-04-28T14:45:08;0.95;;;0.90;;
14526;SDS011;7350;51.208;4.238;2023-04-28T14:47:36;0.95;;;0.95;;
14526;SDS011;7350;51.208;4.238;2023-04-28T14:50:04;1.00;;;1.00;;
14526;SDS011;7350;51.208;4.238;2023-04-28T14:52:34;1.00;;;1.00;;
14526;SDS011;7350;51.208;4.238;2023-04-28T14:55:02;1.23;;;1.13;;
14526;SDS011;7350;51.208;4.238;2023-04-28T14:57:30;1.30;;;1.20;;
14526;SDS011;7350;51.208;4.238;2023-04-28T14:59:58;1.08;;;1.00;;
14526;SDS011;7350;51.208;4.238;2023-04-28T15:02:25;1.45;;;1.30;;
14526;SDS011;7350;51.208;4.238;2023-04-28T15:04:53;2.03;;;1.40;;
14526;SDS011;7350;51.208;4.238;2023-04-28T15:07:20;1.05;;;0.95;;
14526;SDS011;7350;51.208;4.238;2023-04-28T15:09:49;1.88;;;1.20;;
14526;SDS011;7350;51.208;4.238;2023-04-28T15:12:16;1.33;;;1.23;;
14526;SDS011;7350;51.208;4.238;2023-04-28T15:14:43;2.10;;;1.50;;
14526;SDS011;7350;51.208;4.238;2023-04-28T15:17:10;5.53;;;2.22;;
14526;SDS011;7350;51.208;4.238;2023-04-28T15:19:37;3.53;;;2.33;;
14526;SDS011;7350;51.208;4.238;2023-04-28T15:22:04;4.10;;;2.10;;
14526;SDS011;7350;51.208;4.238;2023-04-28T15:24:31;6.20;;;2.15;;
14526;SDS011;7350;51.208;4.238;2023-04-28T15:26:59;2.75;;;1.63;;